sensor_id;sensor_type;location;lat;lon;timestamp;P1;durP1;ratioP1;P2;durP2;ratioP2
2099;SDS011;1055;48.854;9.302;2022-07-04T00:00:23;6.83;;;2.90;;
2099;SDS011;1055;48.854;9.302;2022-07-04T00:02:49;6.70;;;2.70;;
2099;SDS011;1055;48.854;9.302;2022-07-04T00:05:16;8.13;;;3.60;;
2099;SDS011;1055;48.854;9.302;2022-07-04T00:07:44;6.60;;;2.77;;
2099;SDS011;1055;48.854;9.302;2022-07-04T00:10:12;6.90;;;3.30;;
2099;SDS011;1055;48.854;9.302;2022-07-04T00:12:39;8.93;;;3.00;;
2099;SDS011;1055;48.854;9.302;2022-07-04T00:15:05;6.90;;;3.27;;
2099;SDS011;1055;48.854;9.302;2022-07-04T00:17:32;6.13;;;3.30;;
2099;SDS011;1055;48.854;9.302;2022-07-04T00:19:58;5.90;;;2.87;;
2099;SDS011;1055;48.854;9.302;2022-07-04T00:22:24;6.17;;;3.23;;
2099;SDS011;1055;48.854;9.302;2022-07-04T00:24:50;7.27;;;2.90;;
2099;SDS011;1055;48.854;9.302;2022-07-04T00:27:15;6.70;;;3.20;;
2099;SDS011;1055;48.854;9.302;2022-07-04T00:29:41;9.53;;;3.57;;
2099;SDS011;1055;48.854;9.302;2022-07-04T00:32:07;6.27;;;2.87;;
2099;SDS011;1055;48.854;9.302;2022-07-04T00:34:33;6.87;;;3.07;;
2099;SDS011;1055;48.854;9.302;2022-07-04T00:36:58;7.30;;;3.30;;
2099;SDS011;1055;48.854;9.302;2022-07-04T00:39:24;6.70;;;3.17;;
2099;SDS011;1055;48.854;9.302;2022-07-04T00:41:50;7.13;;;3.00;;
2099;SDS011;1055;48.854;9.302;2022-07-04T00:44:16;5.90;;;2.70;;
2099;SDS011;1055;48.854;9.302;2022-07-04T00:46:42;6.23;;;3.20;;
2099;SDS011;1055;48.854;9.302;2022-07-04T00:49:09;5.60;;;2.87;;
2099;SDS011;1055;48.854;9.302;2022-07-04T00:51:36;5.90;;;2.60;;
2099;SDS011;1055;48.854;9.302;2022-07-04T00:54:04;7.77;;;3.00;;
2099;SDS011;1055;48.854;9.302;2022-07-04T00:56:30;7.20;;;3.07;;
2099;SDS011;1055;48.854;9.302;2022-07-04T00:58:56;6.60;;;2.83;;
2099;SDS011;1055;48.854;9.302;2022-07-04T01:01:24;7.40;;;3.10;;
2099;SDS011;1055;48.854;9.302;2022-07-04T01:03:50;7.13;;;2.87;;
2099;SDS011;1055;48.854;9.302;2022-07-04T01:06:16;6.50;;;3.17;;
2099;SDS011;1055;48.854;9.302;2022-07-04T01:08:44;7.10;;;2.90;;
2099;SDS011;1055;48.854;9.302;2022-07-04T01:11:11;6.30;;;3.00;;
2099;SDS011;1055;48.854;9.302;2022-07-04T01:13:37;6.30;;;2.80;;
2099;SDS011;1055;48.854;9.302;2022-07-04T01:16:03;9.03;;;2.73;;
2099;SDS011;1055;48.854;9.302;2022-07-04T01:18:29;8.73;;;3.00;;
2099;SDS011;1055;48.854;9.302;2022-07-04T01:20:55;13.33;;;3.30;;
2099;SDS011;1055;48.854;9.302;2022-07-04T01:23:21;5.73;;;2.57;;
2099;SDS011;1055;48.854;9.302;2022-07-04T01:25:47;6.63;;;2.70;;
2099;SDS011;1055;48.854;9.302;2022-07-04T01:28:15;8.67;;;3.03;;
2099;SDS011;1055;48.854;9.302;2022-07-04T01:30:41;6.47;;;2.87;;
2099;SDS011;1055;48.854;9.302;2022-07-04T01:33:07;5.67;;;2.80;;
2099;SDS011;1055;48.854;9.302;2022-07-04T01:35:32;8.90;;;3.00;;
2099;SDS011;1055;48.854;9.302;2022-07-04T01:37:58;6.97;;;2.87;;
2099;SDS011;1055;48.854;9.302;2022-07-04T01:40:24;12.07;;;3.43;;
2099;SDS011;1055;48.854;9.302;2022-07-04T01:42:49;7.50;;;2.77;;
2099;SDS011;1055;48.854;9.302;2022-07-04T01:45:15;8.20;;;2.93;;
2099;SDS011;1055;48.854;9.302;2022-07-04T01:47:41;6.50;;;2.77;;
2099;SDS011;1055;48.854;9.302;2022-07-04T01:50:08;6.30;;;3.10;;
2099;SDS011;1055;48.854;9.302;2022-07-04T01:52:38;6.83;;;2.93;;
2099;SDS011;1055;48.854;9.302;2022-07-04T01:55:05;5.80;;;2.90;;
2099;SDS011;1055;48.854;9.302;2022-07-04T01:57:31;6.60;;;2.93;;
2099;SDS011;1055;48.854;9.302;2022-07-04T01:59:57;5.30;;;2.53;;
2099;SDS011;1055;48.854;9.302;2022-07-04T02:02:41;5.77;;;2.77;;
2099;SDS011;1055;48.854;9.302;2022-07-04T02:05:07;6.20;;;3.00;;
2099;SDS011;1055;48.854;9.302;2022-07-04T02:07:33;6.70;;;2.97;;
2099;SDS011;1055;48.854;9.302;2022-07-04T02:09:59;8.40;;;3.27;;
2099;SDS011;1055;48.854;9.302;2022-07-04T02:12:24;8.97;;;3.50;;
2099;SDS011;1055;48.854;9.302;2022-07-04T02:15:09;6.37;;;3.00;;
2099;SDS011;1055;48.854;9.302;2022-07-04T02:17:34;11.23;;;3.20;;
2099;SDS011;1055;48.854;9.302;2022-07-04T02:20:00;8.27;;;3.10;;
2099;SDS011;1055;48.854;9.302;2022-07-04T02:22:26;7.53;;;3.47;;
2099;SDS011;1055;48.854;9.302;2022-07-04T02:24:52;6.10;;;2.90;;
2099;SDS011;1055;48.854;9.302;2022-07-04T02:27:17;9.40;;;3.30;;
2099;SDS011;1055;48.854;9.302;2022-07-04T02:29:43;5.90;;;2.87;;
2099;SDS011;1055;48.854;9.302;2022-07-04T02:32:09;6.60;;;3.10;;
2099;SDS011;1055;48.854;9.302;2022-07-04T02:34:34;8.00;;;2.90;;
2099;SDS011;1055;48.854;9.302;2022-07-04T02:37:00;6.50;;;3.57;;
2099;SDS011;1055;48.854;9.302;2022-07-04T02:39:26;6.73;;;3.10;;
2099;SDS011;1055;48.854;9.302;2022-07-04T02:41:51;9.87;;;3.00;;
2099;SDS011;1055;48.854;9.302;2022-07-04T02:44:17;8.67;;;3.30;;
2099;SDS011;1055;48.854;9.302;2022-07-04T02:46:43;7.70;;;3.57;;
2099;SDS011;1055;48.854;9.302;2022-07-04T02:49:08;6.60;;;3.10;;
2099;SDS011;1055;48.854;9.302;2022-07-04T02:51:34;6.97;;;3.33;;
2099;SDS011;1055;48.854;9.302;2022-07-04T02:54:00;7.57;;;3.37;;
2099;SDS011;1055;48.854;9.302;2022-07-04T02:56:25;7.80;;;3.30;;
2099;SDS011;1055;48.854;9.302;2022-07-04T02:58:51;7.67;;;3.20;;
2099;SDS011;1055;48.854;9.302;2022-07-04T03:01:17;7.80;;;3.30;;
2099;SDS011;1055;48.854;9.302;2022-07-04T03:03:44;6.20;;;3.10;;
2099;SDS011;1055;48.854;9.302;2022-07-04T03:06:11;6.97;;;2.90;;
2099;SDS011;1055;48.854;9.302;2022-07-04T03:08:37;9.33;;;3.17;;
2099;SDS011;1055;48.854;9.302;2022-07-04T03:11:03;6.40;;;2.97;;
2099;SDS011;1055;48.854;9.302;2022-07-04T03:13:29;7.13;;;2.80;;
2099;SDS011;1055;48.854;9.302;2022-07-04T03:15:55;12.40;;;3.20;;
2099;SDS011;1055;48.854;9.302;2022-07-04T03:18:21;7.70;;;3.17;;
2099;SDS011;1055;48.854;9.302;2022-07-04T03:20:47;6.20;;;2.83;;
2099;SDS011;1055;48.854;9.302;2022-07-04T03:23:13;7.27;;;3.50;;
2099;SDS011;1055;48.854;9.302;2022-07-04T03:25:39;6.80;;;2.87;;
2099;SDS011;1055;48.854;9.302;2022-07-04T03:28:08;6.40;;;3.00;;
2099;SDS011;1055;48.854;9.302;2022-07-04T03:30:34;11.03;;;3.53;;
2099;SDS011;1055;48.854;9.302;2022-07-04T03:33:00;7.57;;;2.90;;
2099;SDS011;1055;48.854;9.302;2022-07-04T03:35:26;7.50;;;3.33;;
2099;SDS011;1055;48.854;9.302;2022-07-04T03:37:52;7.77;;;3.40;;
2099;SDS011;1055;48.854;9.302;2022-07-04T03:40:19;6.20;;;3.17;;
2099;SDS011;1055;48.854;9.302;2022-07-04T03:42:45;9.90;;;3.30;;
2099;SDS011;1055;48.854;9.302;2022-07-04T03:45:11;7.70;;;3.60;;
2099;SDS011;1055;48.854;9.302;2022-07-04T03:47:37;8.63;;;3.53;;
2099;SDS011;1055;48.854;9.302;2022-07-04T03:50:02;7.50;;;3.43;;
2099;SDS011;1055;48.854;9.302;2022-07-04T03:52:29;6.30;;;3.10;;
2099;SDS011;1055;48.854;9.302;2022-07-04T03:54:54;8.30;;;3.53;;
2099;SDS011;1055;48.854;9.302;2022-07-04T03:57:20;9.37;;;3.57;;
2099;SDS011;1055;48.854;9.302;2022-07-04T03:59:46;6.13;;;3.43;;
2099;SDS011;1055;48.854;9.302;2022-07-04T04:02:11;6.70;;;3.40;;
2099;SDS011;1055;48.854;9.302;2022-07-04T04:04:37;7.43;;;3.10;;
2099;SDS011;1055;48.854;9.302;2022-07-04T04:07:21;5.93;;;3.00;;
2099;SDS011;1055;48.854;9.302;2022-07-04T04:09:47;10.00;;;3.10;;
2099;SDS011;1055;48.854;9.302;2022-07-04T04:12:13;14.90;;;3.40;;
2099;SDS011;1055;48.854;9.302;2022-07-04T04:14:39;7.60;;;3.50;;
2099;SDS011;1055;48.854;9.302;2022-07-04T04:17:04;8.40;;;4.50;;
2099;SDS011;1055;48.854;9.302;2022-07-04T04:19:30;7.00;;;3.77;;
2099;SDS011;1055;48.854;9.302;2022-07-04T04:21:56;8.13;;;3.67;;
2099;SDS011;1055;48.854;9.302;2022-07-04T04:24:21;8.13;;;3.90;;
2099;SDS011;1055;48.854;9.302;2022-07-04T04:26:47;5.77;;;3.00;;
2099;SDS011;1055;48.854;9.302;2022-07-04T04:29:13;8.00;;;3.60;;
2099;SDS011;1055;48.854;9.302;2022-07-04T04:31:38;7.33;;;3.17;;
2099;SDS011;1055;48.854;9.302;2022-07-04T04:34:04;8.03;;;3.27;;
2099;SDS011;1055;48.854;9.302;2022-07-04T04:36:30;7.87;;;3.20;;
2099;SDS011;1055;48.854;9.302;2022-07-04T04:38:55;8.03;;;3.40;;
2099;SDS011;1055;48.854;9.302;2022-07-04T04:41:21;7.70;;;4.07;;
2099;SDS011;1055;48.854;9.302;2022-07-04T04:43:47;6.23;;;3.50;;
2099;SDS011;1055;48.854;9.302;2022-07-04T04:46:12;8.20;;;4.03;;
2099;SDS011;1055;48.854;9.302;2022-07-04T04:48:38;8.47;;;4.30;;
2099;SDS011;1055;48.854;9.302;2022-07-04T04:51:04;9.13;;;4.03;;
2099;SDS011;1055;48.854;9.302;2022-07-04T04:53:30;10.10;;;4.23;;
2099;SDS011;1055;48.854;9.302;2022-07-04T04:55:56;8.00;;;4.43;;
2099;SDS011;1055;48.854;9.302;2022-07-04T04:58:22;8.00;;;3.93;;
2099;SDS011;1055;48.854;9.302;2022-07-04T05:00:48;7.67;;;3.60;;
2099;SDS011;1055;48.854;9.302;2022-07-04T05:03:17;11.33;;;3.97;;
2099;SDS011;1055;48.854;9.302;2022-07-04T05:05:43;7.60;;;4.40;;
2099;SDS011;1055;48.854;9.302;2022-07-04T05:08:10;17.67;;;4.73;;
2099;SDS011;1055;48.854;9.302;2022-07-04T05:10:37;9.00;;;4.10;;
2099;SDS011;1055;48.854;9.302;2022-07-04T05:13:04;8.87;;;4.57;;
2099;SDS011;1055;48.854;9.302;2022-07-04T05:15:29;10.50;;;3.80;;
2099;SDS011;1055;48.854;9.302;2022-07-04T05:17:55;7.80;;;4.23;;
2099;SDS011;1055;48.854;9.302;2022-07-04T05:20:21;7.93;;;4.00;;
2099;SDS011;1055;48.854;9.302;2022-07-04T05:22:47;9.20;;;4.10;;
2099;SDS011;1055;48.854;9.302;2022-07-04T05:25:13;6.90;;;3.60;;
2099;SDS011;1055;48.854;9.302;2022-07-04T05:27:38;7.10;;;3.53;;
2099;SDS011;1055;48.854;9.302;2022-07-04T05:30:05;7.10;;;3.13;;
2099;SDS011;1055;48.854;9.302;2022-07-04T05:32:31;11.60;;;4.27;;
2099;SDS011;1055;48.854;9.302;2022-07-04T05:34:57;6.77;;;3.63;;
2099;SDS011;1055;48.854;9.302;2022-07-04T05:37:23;10.23;;;4.00;;
2099;SDS011;1055;48.854;9.302;2022-07-04T05:39:49;8.00;;;3.90;;
2099;SDS011;1055;48.854;9.302;2022-07-04T05:42:14;7.67;;;3.50;;
2099;SDS011;1055;48.854;9.302;2022-07-04T05:44:40;9.07;;;3.57;;
2099;SDS011;1055;48.854;9.302;2022-07-04T05:47:06;8.20;;;4.47;;
2099;SDS011;1055;48.854;9.302;2022-07-04T05:49:32;8.33;;;3.57;;
2099;SDS011;1055;48.854;9.302;2022-07-04T05:51:57;6.70;;;3.50;;
2099;SDS011;1055;48.854;9.302;2022-07-04T05:54:23;7.67;;;3.60;;
2099;SDS011;1055;48.854;9.302;2022-07-04T05:56:48;8.73;;;3.90;;
2099;SDS011;1055;48.854;9.302;2022-07-04T05:59:14;8.57;;;3.23;;
2099;SDS011;1055;48.854;9.302;2022-07-04T06:01:40;11.27;;;3.53;;
2099;SDS011;1055;48.854;9.302;2022-07-04T06:04:06;7.90;;;3.80;;
2099;SDS011;1055;48.854;9.302;2022-07-04T06:06:32;6.70;;;3.30;;
2099;SDS011;1055;48.854;9.302;2022-07-04T06:08:57;8.00;;;2.90;;
2099;SDS011;1055;48.854;9.302;2022-07-04T06:11:23;8.53;;;3.20;;
2099;SDS011;1055;48.854;9.302;2022-07-04T06:13:50;8.33;;;3.30;;
2099;SDS011;1055;48.854;9.302;2022-07-04T06:16:15;7.83;;;3.63;;
2099;SDS011;1055;48.854;9.302;2022-07-04T06:18:42;8.60;;;3.00;;
2099;SDS011;1055;48.854;9.302;2022-07-04T06:21:08;11.70;;;5.20;;
2099;SDS011;1055;48.854;9.302;2022-07-04T06:23:34;7.33;;;3.70;;
2099;SDS011;1055;48.854;9.302;2022-07-04T06:26:00;6.50;;;3.50;;
2099;SDS011;1055;48.854;9.302;2022-07-04T06:28:26;8.20;;;3.60;;
2099;SDS011;1055;48.854;9.302;2022-07-04T06:30:52;7.40;;;3.47;;
2099;SDS011;1055;48.854;9.302;2022-07-04T06:33:17;6.73;;;3.13;;
2099;SDS011;1055;48.854;9.302;2022-07-04T06:35:44;8.20;;;3.90;;
2099;SDS011;1055;48.854;9.302;2022-07-04T06:38:10;7.50;;;3.90;;
2099;SDS011;1055;48.854;9.302;2022-07-04T06:40:37;8.87;;;3.60;;
2099;SDS011;1055;48.854;9.302;2022-07-04T06:43:04;10.27;;;4.17;;
2099;SDS011;1055;48.854;9.302;2022-07-04T06:45:30;8.57;;;3.50;;
2099;SDS011;1055;48.854;9.302;2022-07-04T06:47:56;8.23;;;3.57;;
2099;SDS011;1055;48.854;9.302;2022-07-04T06:50:22;8.77;;;3.53;;
2099;SDS011;1055;48.854;9.302;2022-07-04T06:52:48;8.80;;;3.70;;
2099;SDS011;1055;48.854;9.302;2022-07-04T06:55:14;10.73;;;3.83;;
2099;SDS011;1055;48.854;9.302;2022-07-04T06:57:39;13.50;;;4.03;;
2099;SDS011;1055;48.854;9.302;2022-07-04T07:00:05;6.70;;;3.50;;
2099;SDS011;1055;48.854;9.302;2022-07-04T07:02:36;9.70;;;4.37;;
2099;SDS011;1055;48.854;9.302;2022-07-04T07:05:02;9.03;;;3.30;;
2099;SDS011;1055;48.854;9.302;2022-07-04T07:07:29;8.40;;;3.60;;
2099;SDS011;1055;48.854;9.302;2022-07-04T07:09:55;8.33;;;3.50;;
2099;SDS011;1055;48.854;9.302;2022-07-04T07:12:21;8.53;;;3.30;;
2099;SDS011;1055;48.854;9.302;2022-07-04T07:14:48;8.70;;;3.80;;
2099;SDS011;1055;48.854;9.302;2022-07-04T07:17:15;10.43;;;4.20;;
2099;SDS011;1055;48.854;9.302;2022-07-04T07:19:42;9.90;;;4.13;;
2099;SDS011;1055;48.854;9.302;2022-07-04T07:22:09;9.27;;;4.13;;
2099;SDS011;1055;48.854;9.302;2022-07-04T07:24:36;8.50;;;3.43;;
2099;SDS011;1055;48.854;9.302;2022-07-04T07:27:01;8.47;;;3.77;;
2099;SDS011;1055;48.854;9.302;2022-07-04T07:29:27;8.77;;;4.00;;
2099;SDS011;1055;48.854;9.302;2022-07-04T07:31:53;9.07;;;4.10;;
2099;SDS011;1055;48.854;9.302;2022-07-04T07:34:19;8.73;;;3.10;;
2099;SDS011;1055;48.854;9.302;2022-07-04T07:36:45;8.33;;;3.63;;
2099;SDS011;1055;48.854;9.302;2022-07-04T07:39:10;9.90;;;3.43;;
2099;SDS011;1055;48.854;9.302;2022-07-04T07:41:36;9.33;;;3.80;;
2099;SDS011;1055;48.854;9.302;2022-07-04T07:44:02;8.30;;;3.60;;
2099;SDS011;1055;48.854;9.302;2022-07-04T07:46:27;6.23;;;3.30;;
2099;SDS011;1055;48.854;9.302;2022-07-04T07:48:53;7.80;;;3.70;;
2099;SDS011;1055;48.854;9.302;2022-07-04T07:51:18;6.47;;;3.30;;
2099;SDS011;1055;48.854;9.302;2022-07-04T07:53:44;11.70;;;3.80;;
2099;SDS011;1055;48.854;9.302;2022-07-04T07:56:10;7.20;;;3.50;;
2099;SDS011;1055;48.854;9.302;2022-07-04T07:58:35;7.23;;;3.60;;
2099;SDS011;1055;48.854;9.302;2022-07-04T08:01:01;6.97;;;3.77;;
2099;SDS011;1055;48.854;9.302;2022-07-04T08:03:27;7.03;;;3.80;;
2099;SDS011;1055;48.854;9.302;2022-07-04T08:06:12;7.20;;;3.80;;
2099;SDS011;1055;48.854;9.302;2022-07-04T08:08:39;8.07;;;3.70;;
2099;SDS011;1055;48.854;9.302;2022-07-04T08:11:05;7.90;;;3.30;;
2099;SDS011;1055;48.854;9.302;2022-07-04T08:13:31;9.03;;;5.00;;
2099;SDS011;1055;48.854;9.302;2022-07-04T08:15:57;10.17;;;4.07;;
2099;SDS011;1055;48.854;9.302;2022-07-04T08:18:23;6.97;;;4.33;;
2099;SDS011;1055;48.854;9.302;2022-07-04T08:20:49;9.80;;;3.90;;
2099;SDS011;1055;48.854;9.302;2022-07-04T08:23:15;8.43;;;3.90;;
2099;SDS011;1055;48.854;9.302;2022-07-04T08:25:41;7.47;;;4.13;;
2099;SDS011;1055;48.854;9.302;2022-07-04T08:28:07;7.70;;;4.30;;
2099;SDS011;1055;48.854;9.302;2022-07-04T08:30:33;7.90;;;4.20;;
2099;SDS011;1055;48.854;9.302;2022-07-04T08:32:59;14.17;;;3.77;;
2099;SDS011;1055;48.854;9.302;2022-07-04T08:35:25;9.53;;;4.23;;
2099;SDS011;1055;48.854;9.302;2022-07-04T08:37:50;7.60;;;4.67;;
2099;SDS011;1055;48.854;9.302;2022-07-04T08:40:21;8.57;;;3.93;;
2099;SDS011;1055;48.854;9.302;2022-07-04T08:42:49;7.80;;;3.80;;
2099;SDS011;1055;48.854;9.302;2022-07-04T08:45:16;10.33;;;4.57;;
2099;SDS011;1055;48.854;9.302;2022-07-04T08:47:48;7.93;;;3.90;;
2099;SDS011;1055;48.854;9.302;2022-07-04T08:50:24;7.20;;;4.20;;
2099;SDS011;1055;48.854;9.302;2022-07-04T08:52:56;9.93;;;4.50;;
2099;SDS011;1055;48.854;9.302;2022-07-04T08:55:37;10.13;;;3.90;;
2099;SDS011;1055;48.854;9.302;2022-07-04T08:58:24;9.17;;;4.17;;
2099;SDS011;1055;48.854;9.302;2022-07-04T09:01:04;8.10;;;4.53;;
2099;SDS011;1055;48.854;9.302;2022-07-04T09:03:39;8.67;;;3.90;;
2099;SDS011;1055;48.854;9.302;2022-07-04T09:06:12;7.80;;;4.40;;
2099;SDS011;1055;48.854;9.302;2022-07-04T09:08:38;8.20;;;4.17;;
2099;SDS011;1055;48.854;9.302;2022-07-04T09:11:04;8.53;;;4.60;;
2099;SDS011;1055;48.854;9.302;2022-07-04T09:13:31;6.83;;;4.07;;
2099;SDS011;1055;48.854;9.302;2022-07-04T09:15:57;8.90;;;4.90;;
2099;SDS011;1055;48.854;9.302;2022-07-04T09:18:38;8.37;;;3.93;;
2099;SDS011;1055;48.854;9.302;2022-07-04T09:21:05;9.53;;;3.57;;
2099;SDS011;1055;48.854;9.302;2022-07-04T09:23:33;7.00;;;4.00;;
2099;SDS011;1055;48.854;9.302;2022-07-04T09:26:10;9.80;;;4.13;;
2099;SDS011;1055;48.854;9.302;2022-07-04T09:28:45;9.77;;;4.30;;
2099;SDS011;1055;48.854;9.302;2022-07-04T09:31:18;10.10;;;4.40;;
2099;SDS011;1055;48.854;9.302;2022-07-04T09:33:49;7.17;;;4.30;;
2099;SDS011;1055;48.854;9.302;2022-07-04T09:36:17;8.70;;;4.47;;
2099;SDS011;1055;48.854;9.302;2022-07-04T09:38:44;8.07;;;4.33;;
2099;SDS011;1055;48.854;9.302;2022-07-04T09:41:10;6.20;;;3.67;;
2099;SDS011;1055;48.854;9.302;2022-07-04T09:43:58;8.50;;;4.00;;
2099;SDS011;1055;48.854;9.302;2022-07-04T09:46:29;6.40;;;3.50;;
2099;SDS011;1055;48.854;9.302;2022-07-04T09:48:55;7.00;;;3.97;;
2099;SDS011;1055;48.854;9.302;2022-07-04T09:51:37;9.77;;;4.33;;
2099;SDS011;1055;48.854;9.302;2022-07-04T09:54:13;6.60;;;3.67;;
2099;SDS011;1055;48.854;9.302;2022-07-04T09:56:44;6.53;;;3.80;;
2099;SDS011;1055;48.854;9.302;2022-07-04T09:59:11;7.50;;;4.00;;
2099;SDS011;1055;48.854;9.302;2022-07-04T10:01:36;8.33;;;4.53;;
2099;SDS011;1055;48.854;9.302;2022-07-04T10:04:04;8.50;;;3.93;;
2099;SDS011;1055;48.854;9.302;2022-07-04T10:06:31;7.83;;;4.03;;
2099;SDS011;1055;48.854;9.302;2022-07-04T10:09:08;8.33;;;4.23;;
2099;SDS011;1055;48.854;9.302;2022-07-04T10:11:38;10.40;;;4.70;;
2099;SDS011;1055;48.854;9.302;2022-07-04T10:14:06;7.83;;;3.90;;
2099;SDS011;1055;48.854;9.302;2022-07-04T10:16:32;6.83;;;3.47;;
2099;SDS011;1055;48.854;9.302;2022-07-04T10:18:58;6.70;;;3.90;;
2099;SDS011;1055;48.854;9.302;2022-07-04T10:21:25;8.20;;;3.80;;
2099;SDS011;1055;48.854;9.302;2022-07-04T10:23:51;10.20;;;4.37;;
2099;SDS011;1055;48.854;9.302;2022-07-04T10:26:18;7.33;;;3.27;;
2099;SDS011;1055;48.854;9.302;2022-07-04T10:28:44;7.33;;;3.73;;
2099;SDS011;1055;48.854;9.302;2022-07-04T10:31:12;7.43;;;3.90;;
2099;SDS011;1055;48.854;9.302;2022-07-04T10:33:39;7.80;;;4.37;;
2099;SDS011;1055;48.854;9.302;2022-07-04T10:36:27;8.70;;;3.67;;
2099;SDS011;1055;48.854;9.302;2022-07-04T10:38:57;6.60;;;3.10;;
2099;SDS011;1055;48.854;9.302;2022-07-04T10:41:24;6.77;;;2.83;;
2099;SDS011;1055;48.854;9.302;2022-07-04T10:43:56;7.17;;;2.80;;
2099;SDS011;1055;48.854;9.302;2022-07-04T10:46:48;6.47;;;3.40;;
2099;SDS011;1055;48.854;9.302;2022-07-04T10:49:23;6.90;;;3.40;;
2099;SDS011;1055;48.854;9.302;2022-07-04T10:51:52;6.80;;;3.47;;
2099;SDS011;1055;48.854;9.302;2022-07-04T11:07:23;8.83;;;4.07;;
2099;SDS011;1055;48.854;9.302;2022-07-04T11:17:52;8.07;;;3.00;;
2099;SDS011;1055;48.854;9.302;2022-07-04T11:20:19;6.67;;;3.10;;
2099;SDS011;1055;48.854;9.302;2022-07-04T11:22:45;7.13;;;3.63;;
2099;SDS011;1055;48.854;9.302;2022-07-04T11:25:11;8.60;;;3.63;;
2099;SDS011;1055;48.854;9.302;2022-07-04T11:27:37;6.50;;;3.40;;
2099;SDS011;1055;48.854;9.302;2022-07-04T11:30:04;8.90;;;3.27;;
2099;SDS011;1055;48.854;9.302;2022-07-04T11:32:31;6.40;;;3.23;;
2099;SDS011;1055;48.854;9.302;2022-07-04T11:34:57;6.87;;;3.33;;
2099;SDS011;1055;48.854;9.302;2022-07-04T11:37:23;7.33;;;3.37;;
2099;SDS011;1055;48.854;9.302;2022-07-04T11:39:53;8.30;;;3.70;;
2099;SDS011;1055;48.854;9.302;2022-07-04T11:42:40;6.17;;;3.10;;
2099;SDS011;1055;48.854;9.302;2022-07-04T11:45:44;7.23;;;3.23;;
2099;SDS011;1055;48.854;9.302;2022-07-04T11:48:10;7.97;;;3.63;;
2099;SDS011;1055;48.854;9.302;2022-07-04T11:50:44;6.90;;;3.40;;
2099;SDS011;1055;48.854;9.302;2022-07-04T11:53:10;8.43;;;3.37;;
2099;SDS011;1055;48.854;9.302;2022-07-04T11:55:36;6.23;;;3.23;;
2099;SDS011;1055;48.854;9.302;2022-07-04T11:58:01;6.73;;;3.00;;
2099;SDS011;1055;48.854;9.302;2022-07-04T12:00:28;7.90;;;3.30;;
2099;SDS011;1055;48.854;9.302;2022-07-04T12:02:58;8.90;;;3.77;;
2099;SDS011;1055;48.854;9.302;2022-07-04T12:05:26;6.57;;;3.10;;
2099;SDS011;1055;48.854;9.302;2022-07-04T12:07:52;6.73;;;3.03;;
2099;SDS011;1055;48.854;9.302;2022-07-04T12:10:23;6.37;;;3.47;;
2099;SDS011;1055;48.854;9.302;2022-07-04T12:15:42;6.40;;;3.00;;
2099;SDS011;1055;48.854;9.302;2022-07-04T12:18:16;6.17;;;2.90;;
2099;SDS011;1055;48.854;9.302;2022-07-04T12:20:50;6.67;;;3.20;;
2099;SDS011;1055;48.854;9.302;2022-07-04T12:23:21;5.50;;;2.60;;
2099;SDS011;1055;48.854;9.302;2022-07-04T12:25:50;7.40;;;3.30;;
2099;SDS011;1055;48.854;9.302;2022-07-04T12:28:17;7.73;;;3.17;;
2099;SDS011;1055;48.854;9.302;2022-07-04T12:30:50;7.30;;;2.93;;
2099;SDS011;1055;48.854;9.302;2022-07-04T12:33:21;6.90;;;2.77;;
2099;SDS011;1055;48.854;9.302;2022-07-04T12:35:49;9.67;;;3.00;;
2099;SDS011;1055;48.854;9.302;2022-07-04T12:38:25;8.13;;;3.30;;
2099;SDS011;1055;48.854;9.302;2022-07-04T12:48:49;8.60;;;2.80;;
2099;SDS011;1055;48.854;9.302;2022-07-04T12:51:19;7.60;;;3.07;;
2099;SDS011;1055;48.854;9.302;2022-07-04T12:53:48;5.80;;;3.10;;
2099;SDS011;1055;48.854;9.302;2022-07-04T12:59:02;12.07;;;3.50;;
2099;SDS011;1055;48.854;9.302;2022-07-04T13:01:32;7.83;;;2.80;;
2099;SDS011;1055;48.854;9.302;2022-07-04T13:03:59;7.77;;;2.90;;
2099;SDS011;1055;48.854;9.302;2022-07-04T13:06:25;7.60;;;3.30;;
2099;SDS011;1055;48.854;9.302;2022-07-04T13:08:51;9.53;;;3.60;;
2099;SDS011;1055;48.854;9.302;2022-07-04T13:11:21;7.17;;;3.00;;
2099;SDS011;1055;48.854;9.302;2022-07-04T13:14:07;13.87;;;3.30;;
2099;SDS011;1055;48.854;9.302;2022-07-04T13:16:33;6.20;;;2.90;;
2099;SDS011;1055;48.854;9.302;2022-07-04T13:18:58;7.10;;;3.07;;
2099;SDS011;1055;48.854;9.302;2022-07-04T13:21:24;7.23;;;3.03;;
2099;SDS011;1055;48.854;9.302;2022-07-04T13:23:51;7.07;;;2.80;;
2099;SDS011;1055;48.854;9.302;2022-07-04T13:26:18;5.60;;;2.77;;
2099;SDS011;1055;48.854;9.302;2022-07-04T13:28:44;6.57;;;2.90;;
2099;SDS011;1055;48.854;9.302;2022-07-04T13:31:10;7.50;;;2.83;;
2099;SDS011;1055;48.854;9.302;2022-07-04T13:33:37;7.23;;;2.77;;
2099;SDS011;1055;48.854;9.302;2022-07-04T13:36:03;6.77;;;3.03;;
2099;SDS011;1055;48.854;9.302;2022-07-04T13:38:29;6.00;;;3.13;;
2099;SDS011;1055;48.854;9.302;2022-07-04T13:40:55;6.80;;;3.50;;
2099;SDS011;1055;48.854;9.302;2022-07-04T13:43:22;5.40;;;2.70;;
2099;SDS011;1055;48.854;9.302;2022-07-04T13:45:54;6.50;;;3.20;;
2099;SDS011;1055;48.854;9.302;2022-07-04T13:48:21;7.60;;;3.30;;
2099;SDS011;1055;48.854;9.302;2022-07-04T13:50:47;7.60;;;3.00;;
2099;SDS011;1055;48.854;9.302;2022-07-04T13:53:13;7.53;;;3.07;;
2099;SDS011;1055;48.854;9.302;2022-07-04T13:55:40;7.00;;;3.00;;
2099;SDS011;1055;48.854;9.302;2022-07-04T13:58:07;7.60;;;3.40;;
2099;SDS011;1055;48.854;9.302;2022-07-04T14:00:33;8.27;;;3.00;;
2099;SDS011;1055;48.854;9.302;2022-07-04T14:03:00;8.70;;;3.20;;
2099;SDS011;1055;48.854;9.302;2022-07-04T14:05:26;7.40;;;3.60;;
2099;SDS011;1055;48.854;9.302;2022-07-04T14:07:53;9.83;;;3.43;;
2099;SDS011;1055;48.854;9.302;2022-07-04T14:10:19;9.80;;;3.30;;
2099;SDS011;1055;48.854;9.302;2022-07-04T14:12:45;7.30;;;3.10;;
2099;SDS011;1055;48.854;9.302;2022-07-04T14:15:11;6.73;;;3.10;;
2099;SDS011;1055;48.854;9.302;2022-07-04T14:17:37;6.60;;;3.17;;
2099;SDS011;1055;48.854;9.302;2022-07-04T14:20:04;7.30;;;3.30;;
2099;SDS011;1055;48.854;9.302;2022-07-04T14:22:32;6.90;;;3.20;;
2099;SDS011;1055;48.854;9.302;2022-07-04T14:24:59;5.80;;;3.27;;
2099;SDS011;1055;48.854;9.302;2022-07-04T14:27:24;6.80;;;3.37;;
2099;SDS011;1055;48.854;9.302;2022-07-04T14:29:50;7.63;;;2.83;;
2099;SDS011;1055;48.854;9.302;2022-07-04T14:32:16;9.00;;;3.50;;
2099;SDS011;1055;48.854;9.302;2022-07-04T14:34:41;7.40;;;3.40;;
2099;SDS011;1055;48.854;9.302;2022-07-04T14:37:07;6.10;;;2.87;;
2099;SDS011;1055;48.854;9.302;2022-07-04T14:39:33;7.60;;;3.40;;
2099;SDS011;1055;48.854;9.302;2022-07-04T14:41:58;5.90;;;2.80;;
2099;SDS011;1055;48.854;9.302;2022-07-04T14:44:24;5.83;;;2.73;;
2099;SDS011;1055;48.854;9.302;2022-07-04T14:46:50;6.80;;;2.97;;
2099;SDS011;1055;48.854;9.302;2022-07-04T14:49:15;6.03;;;3.30;;
2099;SDS011;1055;48.854;9.302;2022-07-04T14:51:41;5.90;;;3.10;;
2099;SDS011;1055;48.854;9.302;2022-07-04T14:54:07;8.17;;;3.27;;
2099;SDS011;1055;48.854;9.302;2022-07-04T14:56:34;6.13;;;3.20;;
2099;SDS011;1055;48.854;9.302;2022-07-04T14:59:00;6.50;;;3.17;;
2099;SDS011;1055;48.854;9.302;2022-07-04T15:01:27;7.90;;;3.23;;
2099;SDS011;1055;48.854;9.302;2022-07-04T15:03:53;6.80;;;3.23;;
2099;SDS011;1055;48.854;9.302;2022-07-04T15:06:19;5.53;;;3.10;;
2099;SDS011;1055;48.854;9.302;2022-07-04T15:08:45;5.90;;;3.00;;
2099;SDS011;1055;48.854;9.302;2022-07-04T15:11:10;6.10;;;3.20;;
2099;SDS011;1055;48.854;9.302;2022-07-04T15:13:36;6.80;;;3.30;;
2099;SDS011;1055;48.854;9.302;2022-07-04T15:16:02;5.97;;;3.33;;
2099;SDS011;1055;48.854;9.302;2022-07-04T15:18:27;7.37;;;3.47;;
2099;SDS011;1055;48.854;9.302;2022-07-04T15:20:53;6.57;;;3.33;;
2099;SDS011;1055;48.854;9.302;2022-07-04T15:23:37;6.93;;;4.00;;
2099;SDS011;1055;48.854;9.302;2022-07-04T15:26:22;7.77;;;3.97;;
2099;SDS011;1055;48.854;9.302;2022-07-04T15:28:47;6.73;;;3.67;;
2099;SDS011;1055;48.854;9.302;2022-07-04T15:31:13;6.80;;;3.87;;
2099;SDS011;1055;48.854;9.302;2022-07-04T15:33:39;7.70;;;3.37;;
2099;SDS011;1055;48.854;9.302;2022-07-04T15:36:05;6.70;;;3.40;;
2099;SDS011;1055;48.854;9.302;2022-07-04T15:38:31;9.33;;;3.00;;
2099;SDS011;1055;48.854;9.302;2022-07-04T15:40:56;6.00;;;3.10;;
2099;SDS011;1055;48.854;9.302;2022-07-04T15:43:24;7.47;;;3.13;;
2099;SDS011;1055;48.854;9.302;2022-07-04T15:45:50;14.13;;;3.37;;
2099;SDS011;1055;48.854;9.302;2022-07-04T15:48:16;5.73;;;3.00;;
2099;SDS011;1055;48.854;9.302;2022-07-04T15:50:42;5.50;;;2.90;;